Time;durP1;ratioP1;P1;durP2;ratioP2;P2;SDS_P1;SDS_P2;PMS_P1;PMS_P2;Temp;Humidity;BMP_temperature;BMP_pressure;BME280_temperature;BME280_humidity;BME280_pressure;Samples;Min_cycle;Max_cycle;Signal;HPM_P1;HPM_P2
2021/12/02 00:01:06;;;;;;;3.33;1.00;;;8.90;99.90;;;;;;5052183;28;20225;-66
2021/12/02 00:03:35;;;;;;;1.57;1.00;;;8.90;99.90;;;;;;5052093;28;20259;-63
2021/12/02 00:06:02;;;;;;;3.10;0.93;;;8.80;99.90;;;;;;5051980;28;20727;-64
2021/12/02 00:08:29;;;;;;;3.10;0.90;;;8.80;99.90;;;;;;5051882;28;20209;-63
2021/12/02 00:10:56;;;;;;;1.53;0.70;;;8.80;99.90;;;;;;5052099;28;20198;-64
2021/12/02 00:13:26;;;;;;;3.47;0.87;;;8.70;99.90;;;;;;5051745;28;20240;-64
2021/12/02 00:15:57;;;;;;;3.63;0.77;;;8.60;99.90;;;;;;5051769;28;20245;-63
2021/12/02 00:21:02;;;;;;;1.53;0.60;;;8.60;99.90;;;;;;5052028;28;20206;-63
2021/12/02 00:21:20;;;;;;;1.70;0.90;;;8.50;99.90;;;;;;5051677;28;20711;-63
2021/12/02 00:23:52;;;;;;;1.53;0.70;;;8.40;99.90;;;;;;5052181;28;20251;-64
2021/12/02 00:26:22;;;;;;;1.87;0.80;;;8.30;99.90;;;;;;5052150;28;20784;-63
2021/12/02 00:28:52;;;;;;;2.43;0.90;;;8.30;99.90;;;;;;5052094;28;20236;-64
2021/12/02 00:31:21;;;;;;;1.97;0.73;;;8.20;99.90;;;;;;5052120;28;20216;-64
2021/12/02 00:33:50;;;;;;;2.17;0.97;;;8.20;99.90;;;;;;5051691;28;20210;-63
2021/12/02 00:36:18;;;;;;;1.00;0.70;;;8.10;99.90;;;;;;5053308;28;20283;-64
2021/12/02 00:38:47;;;;;;;2.80;0.57;;;8.10;99.90;;;;;;5055883;28;20213;-64
2021/12/02 00:41:16;;;;;;;2.93;0.90;;;8.10;99.90;;;;;;5055907;28;20261;-61
2021/12/02 00:43:44;;;;;;;2.27;0.70;;;8.00;99.90;;;;;;5055631;28;20255;-62
2021/12/02 00:46:13;;;;;;;1.50;1.00;;;8.00;99.90;;;;;;5056047;28;20229;-62
2021/12/02 00:48:41;;;;;;;4.90;1.30;;;7.90;99.90;;;;;;5055530;28;20376;-62
2021/12/02 00:51:09;;;;;;;1.67;1.07;;;7.90;99.90;;;;;;5055339;28;20220;-63
2021/12/02 00:53:42;;;;;;;2.53;1.30;;;7.90;99.90;;;;;;5055381;28;20210;-62
2021/12/02 00:56:12;;;;;;;1.63;0.70;;;7.80;99.90;;;;;;5055811;28;20689;-63
2021/12/02 00:58:40;;;;;;;3.47;0.90;;;7.80;99.90;;;;;;5056037;28;20293;-63
2021/12/02 01:01:08;;;;;;;2.40;1.30;;;7.70;99.90;;;;;;5056022;28;20642;-63
2021/12/02 01:03:37;;;;;;;3.40;1.77;;;7.70;99.90;;;;;;5055657;28;20563;-63
2021/12/02 01:06:05;;;;;;;1.97;1.13;;;7.70;99.90;;;;;;5055128;28;20268;-63
2021/12/02 01:08:33;;;;;;;3.27;1.10;;;7.70;99.90;;;;;;5055529;28;20244;-62
2021/12/02 01:11:00;;;;;;;4.30;1.30;;;7.80;99.90;;;;;;5055444;28;20229;-63
2021/12/02 01:13:28;;;;;;;2.23;1.10;;;7.80;99.90;;;;;;5055290;28;20210;-63
2021/12/02 01:15:55;;;;;;;3.40;1.30;;;7.90;99.90;;;;;;5055325;28;20246;-63
2021/12/02 01:18:22;;;;;;;2.10;1.20;;;8.00;99.90;;;;;;5055210;28;20281;-63
2021/12/02 01:20:51;;;;;;;1.97;0.93;;;8.10;99.90;;;;;;5055050;28;20355;-63
2021/12/02 01:23:19;;;;;;;1.83;0.67;;;8.20;99.90;;;;;;5055055;28;20236;-63
2021/12/02 01:25:49;;;;;;;1.63;0.70;;;8.30;99.90;;;;;;5055312;28;20226;-63
2021/12/02 01:28:18;;;;;;;2.17;0.70;;;8.30;99.90;;;;;;5054840;28;20205;-63
2021/12/02 01:30:47;;;;;;;1.97;0.70;;;8.40;99.90;;;;;;5054909;28;20262;-63
2021/12/02 01:33:16;;;;;;;2.90;0.80;;;8.50;99.90;;;;;;5054941;28;20680;-63
2021/12/02 01:35:48;;;;;;;1.77;1.00;;;8.50;99.90;;;;;;5054418;28;20229;-63
2021/12/02 01:38:15;;;;;;;1.47;0.70;;;8.60;99.90;;;;;;5054664;28;20206;-63
2021/12/02 01:40:44;;;;;;;1.87;0.87;;;8.60;99.90;;;;;;5054449;28;20229;-63
2021/12/02 01:43:15;;;;;;;0.93;0.70;;;8.70;99.90;;;;;;5054404;28;20224;-63
2021/12/02 01:45:42;;;;;;;3.20;0.60;;;8.70;99.90;;;;;;5055029;28;20576;-63
2021/12/02 01:48:12;;;;;;;3.43;0.73;;;8.80;99.90;;;;;;5054533;28;20206;-63
2021/12/02 01:50:40;;;;;;;0.87;0.40;;;8.80;99.90;;;;;;5054662;28;20289;-63
2021/12/02 01:53:07;;;;;;;2.40;0.70;;;8.80;99.90;;;;;;5054261;28;20217;-63
2021/12/02 01:55:42;;;;;;;1.53;0.80;;;8.70;99.90;;;;;;5054095;28;20280;-63
2021/12/02 01:58:16;;;;;;;1.97;0.70;;;8.80;99.90;;;;;;5054719;28;20219;-63
2021/12/02 02:00:45;;;;;;;1.43;0.60;;;8.80;99.90;;;;;;5054478;28;20755;-63
2021/12/02 02:03:15;;;;;;;1.87;0.80;;;8.80;99.90;;;;;;5054141;28;20209;-64
2021/12/02 02:05:42;;;;;;;1.60;0.67;;;8.90;99.90;;;;;;5054196;28;20221;-63
2021/12/02 02:08:15;;;;;;;2.30;0.60;;;8.90;99.90;;;;;;5053886;28;20205;-63
2021/12/02 02:10:42;;;;;;;1.30;0.50;;;9.00;99.90;;;;;;5054075;28;20206;-63
2021/12/02 02:13:10;;;;;;;1.37;0.70;;;9.00;99.90;;;;;;5053971;28;20209;-63
2021/12/02 02:15:38;;;;;;;1.03;0.60;;;9.10;99.90;;;;;;5054183;28;20241;-63
2021/12/02 02:18:10;;;;;;;1.17;0.40;;;9.10;99.90;;;;;;5053831;28;20673;-63
2021/12/02 02:20:40;;;;;;;0.97;0.40;;;9.10;99.90;;;;;;5053619;28;20767;-63
2021/12/02 02:23:11;;;;;;;1.50;0.60;;;9.10;99.90;;;;;;5053816;28;20205;-63
2021/12/02 02:25:38;;;;;;;2.87;0.47;;;9.00;99.90;;;;;;5053792;28;20253;-63
2021/12/02 02:28:05;;;;;;;2.90;1.00;;;9.00;99.90;;;;;;5053918;28;20214;-64
2021/12/02 02:30:32;;;;;;;2.10;0.70;;;9.10;99.90;;;;;;5053684;28;20205;-63
2021/12/02 02:32:59;;;;;;;1.43;0.60;;;9.00;99.90;;;;;;5053335;28;20209;-63
2021/12/02 02:35:26;;;;;;;1.83;0.73;;;9.00;99.90;;;;;;5053620;28;20233;-63
2021/12/02 02:37:54;;;;;;;1.50;0.90;;;9.00;99.90;;;;;;5053886;28;20205;-63
2021/12/02 02:40:23;;;;;;;1.80;0.80;;;9.10;99.90;;;;;;5053334;28;20209;-63
2021/12/02 02:42:56;;;;;;;1.73;0.60;;;9.00;99.90;;;;;;5053349;28;20205;-63
2021/12/02 02:45:24;;;;;;;2.13;0.73;;;8.90;99.90;;;;;;5053465;28;20581;-64
2021/12/02 02:47:50;;;;;;;2.60;1.07;;;8.90;99.90;;;;;;5053357;28;20673;-64
2021/12/02 02:50:18;;;;;;;1.30;0.60;;;8.90;99.90;;;;;;5054180;28;20585;-63
2021/12/02 02:52:46;;;;;;;2.40;0.90;;;8.80;99.90;;;;;;5053646;28;20216;-63
2021/12/02 02:55:18;;;;;;;0.87;0.50;;;8.80;99.90;;;;;;5053432;28;20559;-63
2021/12/02 02:57:53;;;;;;;2.17;0.77;;;8.80;99.90;;;;;;5054172;28;20210;-63
2021/12/02 03:00:26;;;;;;;1.57;0.47;;;8.60;99.90;;;;;;5053725;28;20208;-63
2021/12/02 03:02:59;;;;;;;1.57;0.50;;;8.60;99.90;;;;;;5053389;28;20213;-63
2021/12/02 03:05:30;;;;;;;1.93;0.50;;;8.50;99.90;;;;;;5053579;28;20653;-63
2021/12/02 03:08:10;;;;;;;2.13;0.67;;;8.40;99.90;;;;;;5052881;28;20217;-63
2021/12/02 03:10:43;;;;;;;0.90;0.50;;;8.40;99.90;;;;;;5053227;28;20288;-63
2021/12/02 03:13:16;;;;;;;2.93;0.53;;;8.30;99.90;;;;;;5052659;28;20218;-63
2021/12/02 03:18:29;;;;;;;1.97;0.50;;;8.20;99.90;;;;;;5052606;28;20220;-63
2021/12/02 03:20:56;;;;;;;0.83;0.30;;;8.20;99.90;;;;;;5052782;28;20602;-63
2021/12/02 03:23:23;;;;;;;2.00;0.40;;;8.20;99.90;;;;;;5052345;28;20201;-63
2021/12/02 03:25:51;;;;;;;1.70;0.30;;;8.20;99.90;;;;;;5052767;28;20222;-63
2021/12/02 03:28:18;;;;;;;1.83;0.40;;;8.10;99.90;;;;;;5052767;28;20213;-63
2021/12/02 03:30:45;;;;;;;1.67;0.80;;;8.10;99.90;;;;;;5052275;28;20206;-63
2021/12/02 03:33:12;;;;;;;0.40;0.23;;;8.10;99.90;;;;;;5052166;28;20220;-63
2021/12/02 03:35:39;;;;;;;1.50;0.40;;;8.10;99.90;;;;;;5052325;28;20230;-63
2021/12/02 03:38:06;;;;;;;0.80;0.50;;;8.00;99.90;;;;;;5052565;28;20213;-63
2021/12/02 03:40:32;;;;;;;0.70;0.40;;;8.00;99.90;;;;;;5052559;28;20208;-63
2021/12/02 03:43:01;;;;;;;0.80;0.40;;;8.00;99.90;;;;;;5051974;28;20205;-63
2021/12/02 03:45:30;;;;;;;1.97;0.50;;;7.90;99.90;;;;;;5052296;28;20225;-63
2021/12/02 03:47:57;;;;;;;1.40;0.50;;;7.90;99.90;;;;;;5052537;28;20675;-63
2021/12/02 03:50:24;;;;;;;0.97;0.40;;;8.00;99.90;;;;;;5052133;28;20212;-63
2021/12/02 03:52:50;;;;;;;1.73;0.43;;;8.00;99.90;;;;;;5051888;28;20300;-63
2021/12/02 03:55:17;;;;;;;49.77;39.23;;;8.10;99.90;;;;;;5052487;28;20213;-63
2021/12/02 03:57:44;;;;;;;2.03;0.90;;;8.10;99.90;;;;;;5052090;28;20209;-64
2021/12/02 04:00:13;;;;;;;1.20;0.50;;;8.10;99.90;;;;;;5051869;28;20212;-63
2021/12/02 04:02:40;;;;;;;0.93;0.50;;;8.00;99.90;;;;;;5051761;28;20606;-63
2021/12/02 04:05:07;;;;;;;0.80;0.70;;;7.90;99.90;;;;;;5052021;28;20213;-64
2021/12/02 04:07:33;;;;;;;2.27;0.70;;;7.90;99.90;;;;;;5052033;28;20210;-64
2021/12/02 04:10:01;;;;;;;1.90;0.60;;;8.00;99.90;;;;;;5051985;28;20205;-64
2021/12/02 04:12:33;;;;;;;1.80;0.70;;;8.00;99.90;;;;;;5055511;28;20228;-63
2021/12/02 04:15:03;;;;;;;1.00;0.70;;;8.00;99.90;;;;;;5056414;28;20216;-63
2021/12/02 04:17:41;;;;;;;4.03;2.87;;;8.00;99.90;;;;;;5056299;28;20615;-63
2021/12/02 04:20:12;;;;;;;0.93;0.60;;;8.10;99.90;;;;;;5056402;28;20205;-63
2021/12/02 04:22:39;;;;;;;1.73;0.70;;;8.10;99.90;;;;;;5055772;28;20280;-63
2021/12/02 04:25:07;;;;;;;1.47;0.50;;;8.10;99.90;;;;;;5055816;28;20209;-63
2021/12/02 04:27:34;;;;;;;2.20;0.83;;;8.20;99.90;;;;;;5055788;28;20210;-64
2021/12/02 04:30:02;;;;;;;2.27;0.73;;;8.20;99.90;;;;;;5055770;28;20228;-64
2021/12/02 04:32:28;;;;;;;2.27;0.70;;;8.10;99.90;;;;;;5056198;28;20198;-63
2021/12/02 04:34:56;;;;;;;2.43;0.87;;;8.00;99.90;;;;;;5055828;28;20209;-63
2021/12/02 04:37:23;;;;;;;2.20;0.80;;;8.00;99.90;;;;;;5055990;28;20229;-63
2021/12/02 04:39:50;;;;;;;1.90;0.90;;;8.00;99.90;;;;;;5055658;28;20578;-63
2021/12/02 04:42:17;;;;;;;1.90;0.53;;;7.90;99.90;;;;;;5055465;28;20218;-63
2021/12/02 04:44:44;;;;;;;1.63;0.80;;;8.00;99.90;;;;;;5055593;28;20745;-63
2021/12/02 04:47:10;;;;;;;1.30;0.50;;;7.70;99.90;;;;;;5055870;28;20232;-63
2021/12/02 04:49:37;;;;;;;1.77;0.80;;;7.70;99.90;;;;;;5055759;28;20698;-63
2021/12/02 04:52:06;;;;;;;1.60;0.70;;;7.60;99.90;;;;;;5055724;28;20608;-63
2021/12/02 04:54:32;;;;;;;1.80;1.00;;;7.60;99.90;;;;;;5056188;28;20210;-63
2021/12/02 04:56:59;;;;;;;2.27;0.93;;;7.60;99.90;;;;;;5055803;28;20237;-63
2021/12/02 04:59:26;;;;;;;3.70;0.90;;;7.60;99.90;;;;;;5055608;28;20209;-63
2021/12/02 05:01:53;;;;;;;1.50;0.73;;;7.60;99.90;;;;;;5055850;28;20226;-62
2021/12/02 05:04:19;;;;;;;0.80;0.50;;;7.60;99.90;;;;;;5055733;28;20202;-62
2021/12/02 05:06:46;;;;;;;0.97;0.90;;;7.60;99.90;;;;;;5055425;28;20238;-62
2021/12/02 05:09:14;;;;;;;1.40;0.90;;;7.60;99.90;;;;;;5055831;28;20210;-62
2021/12/02 05:11:41;;;;;;;0.90;0.70;;;7.60;99.90;;;;;;5055517;28;20205;-62
2021/12/02 05:14:09;;;;;;;1.90;0.90;;;7.60;99.90;;;;;;5056016;28;20241;-62
2021/12/02 05:16:36;;;;;;;1.90;1.00;;;7.40;99.90;;;;;;5056507;28;20240;-62
2021/12/02 05:19:03;;;;;;;1.70;1.10;;;7.40;99.90;;;;;;5056185;28;20216;-63
2021/12/02 05:21:29;;;;;;;6.60;3.30;;;7.50;99.90;;;;;;5056605;28;20222;-64
2021/12/02 05:23:56;;;;;;;3.93;2.13;;;7.50;99.90;;;;;;5057361;28;20205;-64
2021/12/02 05:26:25;;;;;;;2.60;1.27;;;7.60;99.90;;;;;;5058047;28;20236;-63
2021/12/02 05:28:54;;;;;;;1.73;1.00;;;7.60;99.90;;;;;;5057541;28;20224;-64
2021/12/02 05:31:21;;;;;;;1.93;0.90;;;7.70;99.90;;;;;;5057578;28;20201;-64
2021/12/02 05:33:48;;;;;;;1.10;0.73;;;7.70;99.90;;;;;;5055413;28;20583;-63
2021/12/02 05:36:15;;;;;;;1.90;0.97;;;7.70;99.90;;;;;;5054434;28;20230;-63
2021/12/02 05:38:42;;;;;;;2.53;1.27;;;7.70;99.90;;;;;;5054440;28;20677;-63
2021/12/02 05:41:10;;;;;;;2.27;1.07;;;7.60;99.90;;;;;;5054771;28;20210;-62
2021/12/02 05:43:38;;;;;;;2.70;0.90;;;7.60;99.90;;;;;;5054784;28;20241;-63
2021/12/02 05:46:05;;;;;;;2.60;0.90;;;7.50;99.90;;;;;;5054144;28;20606;-63
2021/12/02 05:48:32;;;;;;;0.77;0.53;;;7.50;99.90;;;;;;5054314;28;20210;-62
2021/12/02 05:50:59;;;;;;;0.97;0.60;;;7.50;99.90;;;;;;5054097;28;20209;-62
2021/12/02 05:53:26;;;;;;;1.00;0.70;;;7.50;99.90;;;;;;5053923;28;20669;-63
2021/12/02 05:55:53;;;;;;;1.53;0.60;;;7.60;99.90;;;;;;5054292;28;20234;-63
2021/12/02 05:58:20;;;;;;;1.57;0.70;;;7.70;99.90;;;;;;5054233;28;20232;-64
2021/12/02 06:00:49;;;;;;;1.37;0.60;;;7.80;99.90;;;;;;5054354;28;20205;-64
2021/12/02 06:03:16;;;;;;;4.73;1.20;;;7.80;99.90;;;;;;5053555;28;20659;-63
2021/12/02 06:05:44;;;;;;;2.27;0.90;;;7.80;99.90;;;;;;5053653;28;20229;-63
2021/12/02 06:08:11;;;;;;;2.23;0.90;;;7.80;99.90;;;;;;5054148;28;20213;-63
2021/12/02 06:10:38;;;;;;;1.23;0.80;;;7.90;99.90;;;;;;5053982;28;20587;-63
2021/12/02 06:13:04;;;;;;;1.07;0.80;;;8.00;99.90;;;;;;5053576;28;20579;-63
2021/12/02 06:15:31;;;;;;;3.53;1.17;;;8.10;99.90;;;;;;5053736;28;20240;-63
2021/12/02 06:17:59;;;;;;;1.50;0.70;;;8.10;99.90;;;;;;5053782;28;20201;-63
2021/12/02 06:20:26;;;;;;;1.60;0.80;;;8.10;99.90;;;;;;5053781;28;20213;-63
2021/12/02 06:22:53;;;;;;;1.93;0.70;;;8.10;99.90;;;;;;5053826;28;20232;-64
2021/12/02 06:28:05;;;;;;;3.67;1.40;;;8.00;99.90;;;;;;5053523;28;20314;-63
2021/12/02 06:30:33;;;;;;;1.87;0.80;;;8.10;99.90;;;;;;5053516;28;20208;-63
2021/12/02 06:33:01;;;;;;;2.23;1.30;;;8.00;99.90;;;;;;5053518;28;20210;-63
2021/12/02 06:35:28;;;;;;;1.20;0.60;;;7.90;99.90;;;;;;5053210;28;20221;-65
2021/12/02 06:37:55;;;;;;;2.40;1.03;;;8.00;99.90;;;;;;5054711;28;20205;-63
2021/12/02 06:40:22;;;;;;;3.60;0.97;;;8.00;99.90;;;;;;5054124;28;20587;-63
2021/12/02 06:42:48;;;;;;;2.03;0.90;;;7.90;99.90;;;;;;5054046;28;20226;-63
2021/12/02 06:45:15;;;;;;;2.77;0.70;;;7.90;99.90;;;;;;5054412;28;20673;-63
2021/12/02 06:47:43;;;;;;;1.00;0.70;;;7.80;99.90;;;;;;5054348;28;20216;-63
2021/12/02 06:50:15;;;;;;;11.13;8.23;;;7.80;99.90;;;;;;5053762;28;20209;-63
2021/12/02 06:52:43;;;;;;;2.73;1.50;;;7.80;99.90;;;;;;5053394;28;20205;-64
2021/12/02 06:55:10;;;;;;;1.03;0.70;;;7.80;99.90;;;;;;5053571;28;20213;-64
2021/12/02 06:57:37;;;;;;;2.47;1.10;;;7.80;99.90;;;;;;5053268;28;20636;-64
2021/12/02 07:00:08;;;;;;;2.73;1.00;;;7.80;99.90;;;;;;5053354;28;20217;-64
2021/12/02 07:02:35;;;;;;;2.67;1.00;;;7.70;99.90;;;;;;5053911;28;20221;-64
2021/12/02 07:05:02;;;;;;;2.13;1.17;;;7.70;99.90;;;;;;5053239;28;20217;-64
2021/12/02 07:07:34;;;;;;;2.60;1.03;;;7.70;99.90;;;;;;5054537;28;20275;-63
2021/12/02 07:10:03;;;;;;;2.17;1.00;;;7.70;99.90;;;;;;5053799;28;20300;-64
2021/12/02 07:12:32;;;;;;;1.53;0.70;;;7.70;99.90;;;;;;5053002;28;20240;-64
2021/12/02 07:15:04;;;;;;;1.90;0.80;;;7.70;99.90;;;;;;5053206;28;20260;-63
2021/12/02 07:17:32;;;;;;;4.00;1.10;;;7.60;99.90;;;;;;5053351;28;20213;-63
2021/12/02 07:19:58;;;;;;;2.17;0.90;;;7.70;99.90;;;;;;5052982;28;20305;-63
2021/12/02 07:22:25;;;;;;;0.80;0.80;;;7.80;99.90;;;;;;5052865;28;20727;-63
2021/12/02 07:24:53;;;;;;;2.97;1.20;;;7.90;99.90;;;;;;5052746;28;20212;-63
2021/12/02 07:27:20;;;;;;;2.00;0.70;;;7.90;99.90;;;;;;5053154;28;20226;-63
2021/12/02 07:29:47;;;;;;;1.53;0.83;;;8.00;99.90;;;;;;5053931;28;20201;-63
2021/12/02 07:32:14;;;;;;;2.17;0.90;;;8.10;99.90;;;;;;5053461;28;20201;-63
2021/12/02 07:34:43;;;;;;;2.00;0.90;;;8.10;99.90;;;;;;5052774;28;20210;-63
2021/12/02 07:37:12;;;;;;;3.07;1.80;;;8.20;99.90;;;;;;5052786;28;20673;-64
2021/12/02 07:39:38;;;;;;;1.53;1.00;;;8.30;99.90;;;;;;5053268;28;20214;-64
2021/12/02 07:42:07;;;;;;;2.03;1.07;;;8.40;99.90;;;;;;5052925;28;20209;-63
2021/12/02 07:44:34;;;;;;;2.07;0.57;;;8.40;99.90;;;;;;5052630;28;20206;-64
2021/12/02 07:47:01;;;;;;;4.80;2.33;;;8.50;99.90;;;;;;5053343;28;20226;-64
2021/12/02 07:49:28;;;;;;;2.20;1.07;;;8.60;99.90;;;;;;5053941;28;20650;-63
2021/12/02 07:52:00;;;;;;;0.63;0.47;;;8.70;99.90;;;;;;5053132;28;20205;-63
2021/12/02 07:54:31;;;;;;;1.27;1.00;;;8.70;99.90;;;;;;5053385;28;20205;-64
2021/12/02 07:56:58;;;;;;;1.47;0.80;;;8.80;99.90;;;;;;5052865;28;20221;-64
2021/12/02 07:59:27;;;;;;;1.80;0.60;;;8.90;99.90;;;;;;5053054;28;20591;-64
2021/12/02 08:02:00;;;;;;;4.77;1.00;;;8.90;99.90;;;;;;5052656;28;20209;-63
2021/12/02 08:04:26;;;;;;;1.30;0.77;;;8.70;99.90;;;;;;5052223;28;20201;-63
2021/12/02 08:06:53;;;;;;;1.90;0.80;;;8.90;99.90;;;;;;5052541;28;20248;-64
2021/12/02 08:09:20;;;;;;;2.30;0.77;;;9.00;99.90;;;;;;5052510;28;20237;-63
2021/12/02 08:11:47;;;;;;;2.20;0.80;;;9.00;99.90;;;;;;5052089;28;20700;-63
2021/12/02 08:14:15;;;;;;;1.20;1.03;;;9.10;99.90;;;;;;5051910;28;20205;-64
2021/12/02 08:16:44;;;;;;;3.43;0.90;;;9.20;99.90;;;;;;5051729;28;20245;-62
2021/12/02 08:19:10;;;;;;;3.80;0.90;;;9.30;99.90;;;;;;5051735;28;20215;-62
2021/12/02 08:21:37;;;;;;;1.57;1.03;;;9.50;99.90;;;;;;5051836;28;20712;-67
2021/12/02 08:24:05;;;;;;;2.57;1.10;;;10.00;99.90;;;;;;5051784;28;20295;-62
2021/12/02 08:26:32;;;;;;;2.07;0.53;;;10.10;99.90;;;;;;5051695;28;20236;-62
2021/12/02 08:28:59;;;;;;;1.63;0.70;;;10.00;99.90;;;;;;5052094;28;20206;-64
2021/12/02 08:31:26;;;;;;;1.80;0.80;;;9.80;99.90;;;;;;5051554;28;20205;-60
2021/12/02 08:33:54;;;;;;;1.10;0.90;;;9.80;99.90;;;;;;5051745;28;20206;-60
2021/12/02 08:36:24;;;;;;;4.63;1.07;;;9.70;99.90;;;;;;5051992;28;20353;-60
2021/12/02 08:38:51;;;;;;;1.87;0.67;;;9.60;99.90;;;;;;5051630;28;20205;-60
2021/12/02 08:41:19;;;;;;;6.47;1.00;;;9.70;99.90;;;;;;5051205;28;20210;-60
2021/12/02 08:43:47;;;;;;;2.00;0.93;;;9.70;99.90;;;;;;5051227;28;20367;-61
2021/12/02 08:46:14;;;;;;;2.73;0.83;;;9.80;99.90;;;;;;5050952;28;20229;-61
2021/12/02 08:48:40;;;;;;;1.17;0.60;;;9.90;99.90;;;;;;5051327;28;20206;-61
2021/12/02 08:51:08;;;;;;;2.73;0.97;;;10.10;99.90;;;;;;5051505;28;20209;-61
2021/12/02 08:53:35;;;;;;;2.03;1.00;;;10.40;99.90;;;;;;5050898;28;20205;-61
2021/12/02 08:56:02;;;;;;;2.77;1.13;;;10.50;99.90;;;;;;5051046;28;20226;-61
2021/12/02 08:58:29;;;;;;;1.40;0.90;;;10.50;99.90;;;;;;5054204;28;20217;-61
2021/12/02 09:00:55;;;;;;;2.40;1.10;;;10.50;99.90;;;;;;5054918;28;20213;-61
2021/12/02 09:03:22;;;;;;;1.67;0.73;;;10.40;99.90;;;;;;5054379;28;20228;-61
2021/12/02 09:05:49;;;;;;;5.20;2.10;;;10.30;99.90;;;;;;5054359;28;20721;-61
2021/12/02 09:08:19;;;;;;;2.63;0.73;;;10.10;99.90;;;;;;5054801;28;20205;-61
2021/12/02 09:10:46;;;;;;;1.90;1.23;;;9.90;99.90;;;;;;5054865;28;20210;-61
2021/12/02 09:13:13;;;;;;;1.67;0.83;;;9.70;99.90;;;;;;5054780;28;20212;-60
2021/12/02 09:15:40;;;;;;;2.13;1.00;;;9.60;99.90;;;;;;5055224;28;20234;-60
2021/12/02 09:18:07;;;;;;;1.50;0.73;;;9.70;99.90;;;;;;5054892;28;20662;-60
2021/12/02 09:20:34;;;;;;;1.00;0.73;;;9.80;99.90;;;;;;5054780;28;20673;-61
2021/12/02 09:23:01;;;;;;;2.30;1.10;;;9.80;99.90;;;;;;5054722;28;20229;-61
2021/12/02 09:25:29;;;;;;;2.60;0.93;;;9.80;99.90;;;;;;5054516;28;20233;-61
2021/12/02 09:27:56;;;;;;;1.00;0.80;;;9.80;99.90;;;;;;5055039;28;20205;-64
2021/12/02 09:30:25;;;;;;;2.20;1.10;;;9.80;99.90;;;;;;5054640;28;20206;-61
2021/12/02 09:32:51;;;;;;;4.33;0.80;;;9.80;99.90;;;;;;5054542;28;20300;-60
2021/12/02 09:35:18;;;;;;;1.63;0.70;;;9.80;99.90;;;;;;5054162;28;20209;-59
2021/12/02 09:37:45;;;;;;;2.27;0.87;;;9.90;99.90;;;;;;5054454;28;20263;-60
2021/12/02 09:40:13;;;;;;;2.57;0.80;;;9.70;99.90;;;;;;5054262;28;20213;-60
2021/12/02 09:42:42;;;;;;;2.07;1.00;;;9.80;99.90;;;;;;5054279;28;20202;-61
2021/12/02 09:45:10;;;;;;;2.07;1.00;;;9.90;99.90;;;;;;5054044;28;20213;-61
2021/12/02 09:47:38;;;;;;;1.77;1.00;;;9.70;99.90;;;;;;5054165;28;20209;-61
2021/12/02 09:50:11;;;;;;;1.53;0.77;;;9.70;99.90;;;;;;5054190;28;20212;-59
2021/12/02 09:52:40;;;;;;;1.40;0.90;;;9.70;99.90;;;;;;5054242;28;20206;-60
2021/12/02 09:55:12;;;;;;;4.83;2.97;;;9.70;99.90;;;;;;5053796;28;20657;-60
2021/12/02 09:57:44;;;;;;;1.50;1.10;;;9.70;99.90;;;;;;5054222;28;20205;-64
2021/12/02 10:00:16;;;;;;;2.87;1.30;;;9.60;99.90;;;;;;5054060;28;20298;-63
2021/12/02 10:02:50;;;;;;;2.07;1.50;;;9.60;99.90;;;;;;5053621;28;20526;-59
2021/12/02 10:05:27;;;;;;;1.97;1.50;;;9.50;99.90;;;;;;5053675;28;20650;-64
2021/12/02 10:08:00;;;;;;;1.67;1.00;;;9.30;99.90;;;;;;5054149;28;20202;-65
2021/12/02 10:10:31;;;;;;;1.60;0.93;;;9.10;99.90;;;;;;5053919;28;20201;-62
2021/12/02 10:13:13;;;;;;;0.90;0.60;;;8.70;99.90;;;;;;5053886;28;20293;-62
2021/12/02 10:15:49;;;;;;;0.60;0.53;;;8.20;99.90;;;;;;5053407;28;20273;-61
2021/12/02 10:18:17;;;;;;;1.20;0.63;;;7.80;99.90;;;;;;5053839;28;20208;-61
2021/12/02 10:20:46;;;;;;;1.17;0.60;;;7.60;99.90;;;;;;5053612;28;20623;-62
2021/12/02 10:23:16;;;;;;;1.63;0.80;;;7.60;99.90;;;;;;5053839;28;20225;-62
2021/12/02 10:25:48;;;;;;;2.30;0.70;;;7.40;99.90;;;;;;5053499;28;20229;-62
2021/12/02 10:28:19;;;;;;;0.70;0.50;;;7.30;99.90;;;;;;5053435;28;20627;-61
2021/12/02 10:30:49;;;;;;;1.27;0.60;;;7.20;99.90;;;;;;5053721;28;20205;-61
2021/12/02 10:33:28;;;;;;;2.13;0.83;;;7.30;99.90;;;;;;5053502;28;20206;-61
2021/12/02 10:35:54;;;;;;;0.60;0.50;;;7.40;99.90;;;;;;5053332;28;20233;-62
2021/12/02 10:38:39;;;;;;;0.53;0.47;;;7.20;99.90;;;;;;5054375;28;20263;-61
2021/12/02 10:41:08;;;;;;;1.30;0.70;;;7.20;99.90;;;;;;5055479;28;20213;-62
2021/12/02 10:43:36;;;;;;;3.10;0.70;;;7.30;99.90;;;;;;5053279;28;20221;-61
2021/12/02 10:46:17;;;;;;;0.90;0.80;;;7.40;99.90;;;;;;5053614;28;20225;-62
2021/12/02 10:48:48;;;;;;;2.27;0.80;;;7.50;99.90;;;;;;5053057;28;20209;-61
2021/12/02 10:51:35;;;;;;;1.93;1.00;;;7.70;99.90;;;;;;5052903;28;20700;-62
2021/12/02 10:54:06;;;;;;;0.80;0.70;;;7.80;99.90;;;;;;5052912;28;20331;-62
2021/12/02 10:56:34;;;;;;;4.63;1.90;;;7.80;99.90;;;;;;5052814;28;20256;-62
2021/12/02 10:59:24;;;;;;;3.13;1.70;;;7.80;99.90;;;;;;5052800;28;20209;-63
2021/12/02 11:01:52;;;;;;;4.07;2.00;;;7.90;99.90;;;;;;5052784;28;20210;-63
2021/12/02 11:04:19;;;;;;;5.17;1.50;;;7.90;99.90;;;;;;5052426;28;20233;-62
2021/12/02 11:06:50;;;;;;;5.47;2.47;;;8.00;99.90;;;;;;5052619;28;20225;-63
2021/12/02 11:09:28;;;;;;;1.73;1.27;;;8.00;99.90;;;;;;5052698;28;20213;-63
2021/12/02 11:12:10;;;;;;;0.70;0.70;;;7.80;99.90;;;;;;5052595;28;20208;-62
2021/12/02 11:14:43;;;;;;;1.33;0.90;;;7.80;99.90;;;;;;5052781;28;20198;-61
2021/12/02 11:17:12;;;;;;;2.77;1.47;;;7.60;99.90;;;;;;5083554;22;20252;-60
2021/12/02 11:19:39;;;;;;;2.20;1.23;;;7.70;99.90;;;;;;5068518;28;20625;-61
2021/12/02 11:22:11;;;;;;;0.70;0.70;;;7.80;99.90;;;;;;5072070;28;20254;-59
2021/12/02 11:24:39;;;;;;;3.70;1.83;;;7.60;99.90;;;;;;5072161;28;20218;-60
2021/12/02 11:27:08;;;;;;;1.57;1.00;;;7.40;99.90;;;;;;5072349;28;20608;-60
2021/12/02 11:29:51;;;;;;;1.50;0.90;;;7.50;99.90;;;;;;5072187;28;20630;-59
2021/12/02 11:32:34;;;;;;;1.33;0.83;;;7.60;99.90;;;;;;5072086;28;20219;-60
2021/12/02 11:35:04;;;;;;;3.10;1.80;;;7.70;99.90;;;;;;5071197;28;20664;-61
2021/12/02 11:37:32;;;;;;;3.07;2.37;;;7.90;99.90;;;;;;5071903;28;20836;-59
2021/12/02 11:40:04;;;;;;;2.03;0.97;;;8.10;99.90;;;;;;5072183;28;20205;-58
2021/12/02 11:42:31;;;;;;;2.03;1.00;;;8.00;99.90;;;;;;5058779;28;20437;-57
2021/12/02 11:44:59;;;;;;;2.27;1.40;;;7.90;99.90;;;;;;5051546;28;20283;-57
2021/12/02 11:47:26;;;;;;;8.23;2.23;;;7.90;99.90;;;;;;5051689;28;20229;-57
2021/12/02 11:49:53;;;;;;;2.47;1.50;;;7.90;99.90;;;;;;5051942;28;20239;-58
2021/12/02 11:52:21;;;;;;;1.37;0.70;;;8.10;99.90;;;;;;5051788;28;20209;-59
2021/12/02 11:54:47;;;;;;;2.10;0.80;;;8.20;99.90;;;;;;5051770;28;20201;-58
2021/12/02 11:57:15;;;;;;;2.03;1.60;;;8.40;99.90;;;;;;5051657;28;20244;-57
2021/12/02 11:59:42;;;;;;;1.47;0.97;;;8.60;99.90;;;;;;5051801;28;20206;-57
2021/12/02 12:02:11;;;;;;;0.77;0.60;;;8.80;99.90;;;;;;5052046;28;20205;-57
2021/12/02 12:04:39;;;;;;;1.47;0.63;;;8.90;99.90;;;;;;5051590;28;20229;-57
2021/12/02 12:07:11;;;;;;;1.23;0.80;;;9.00;99.90;;;;;;5051750;28;20290;-58
2021/12/02 12:09:38;;;;;;;3.07;0.90;;;9.10;99.90;;;;;;5051716;28;20276;-57
2021/12/02 12:12:06;;;;;;;1.10;1.00;;;9.20;99.90;;;;;;5051776;28;20209;-58
2021/12/02 12:14:38;;;;;;;2.67;0.80;;;9.20;99.90;;;;;;5051383;28;20228;-59
2021/12/02 12:17:06;;;;;;;1.10;0.80;;;9.20;99.90;;;;;;5051553;28;20332;-58
2021/12/02 12:19:41;;;;;;;1.20;0.83;;;9.20;99.90;;;;;;5051547;28;20691;-57
2021/12/02 12:22:11;;;;;;;1.47;0.80;;;9.20;99.90;;;;;;5051797;28;20213;-57
2021/12/02 12:24:43;;;;;;;5.37;1.57;;;9.20;99.90;;;;;;5051113;28;20268;-57
2021/12/02 12:27:15;;;;;;;2.77;1.20;;;9.10;99.90;;;;;;5051205;28;20252;-57
2021/12/02 12:29:43;;;;;;;4.30;1.00;;;9.00;99.90;;;;;;5051728;28;20206;-57
2021/12/02 12:32:29;;;;;;;1.80;1.10;;;9.00;99.90;;;;;;5052732;28;20213;-57
2021/12/02 12:35:05;;;;;;;2.00;1.00;;;9.00;99.90;;;;;;5055382;28;20255;-57
2021/12/02 12:37:57;;;;;;;3.17;2.27;;;9.00;99.90;;;;;;5055155;28;20362;-57
2021/12/02 12:40:30;;;;;;;7.93;3.80;;;9.00;99.90;;;;;;5055521;28;20220;-58
2021/12/02 12:43:33;;;;;;;10.43;6.10;;;8.90;99.90;;;;;;5055269;28;20212;-57
2021/12/02 12:46:18;;;;;;;1.00;0.70;;;8.90;99.90;;;;;;5013205;28;20226;-57
2021/12/02 12:48:46;;;;;;;2.30;0.80;;;9.00;99.90;;;;;;5013230;28;20214;-57
2021/12/02 12:51:21;;;;;;;1.20;0.77;;;9.10;99.90;;;;;;5037626;28;20221;-57
2021/12/02 12:53:50;;;;;;;2.37;1.17;;;9.10;99.90;;;;;;5054840;28;20747;-57
2021/12/02 12:56:19;;;;;;;1.43;1.00;;;9.20;99.90;;;;;;5054715;28;20301;-56
2021/12/02 12:59:04;;;;;;;2.23;1.00;;;9.20;99.90;;;;;;5055267;28;20594;-58
2021/12/02 13:01:32;;;;;;;1.90;1.00;;;9.30;99.90;;;;;;5055284;28;20210;-56
2021/12/02 13:04:11;;;;;;;1.60;1.00;;;9.20;99.90;;;;;;5054643;28;20717;-56
2021/12/02 13:07:12;;;;;;;3.50;0.80;;;9.20;99.90;;;;;;5054960;28;20780;-57
2021/12/02 13:09:53;;;;;;;2.03;1.10;;;9.10;99.90;;;;;;5053478;28;20205;-56
2021/12/02 13:12:21;;;;;;;1.27;0.70;;;9.20;99.90;;;;;;5054948;28;20676;-55
2021/12/02 13:14:50;;;;;;;1.83;0.80;;;9.20;99.90;;;;;;5054765;28;20304;-55